Las Cruces, NM

4:27 PM MDT on August 29, 2014 (GMT -0600)
Las Cruces International | Change Station
CLOSE
Current Station
Airport
Location: Las Cruces,
Elevation: 4455 ft
Nearby Weather Stations

Elev 4455 ft 32.29 °N, 106.91 °W | Updated 12 minutes ago

Clear
Clear
91 °F
Feels Like 91 °F
N
9
Wind Variable Wind from ESE

Today
High -- | Low -- °F
--% Chance of Precip.
Yesterday
High -- | Low -- °F
Precip. -- in
6:40 AM 7:35 PM
Waxing Crescent, 17% visible
Pressure 30.01 in
Visibility 10.0 miles
Clouds Clear
Dew Point 39 °F
Humidity 16%
Rainfall 0.00 in
Snow Depth Not available.
UV 6 out of 12
Pollen 9.20 out of 12
Air Quality Not available.
Flu Activity Not available.
METAR KLRU 292215Z AUTO 12008KT 050V140 10SM CLR 33/04 A3001 RMK AO2 T03270040 PWINO

More Conditions Fewer Conditions

Pressure 30.01 in
Visibility 10.0 miles
Clouds Clear
Dew Point 39 °F
Humidity 16%
Rainfall 0.00 in
Snow Depth Not available.
UV 6 out of 12
Pollen 9.20 out of 12
Air Quality Not available.
Flu Activity Not available.
METAR KLRU 292215Z AUTO 12008KT 050V140 10SM CLR 33/04 A3001 RMK AO2 T03270040 PWINO

More Conditions Fewer Conditions

10-Day Weather Forecast

Almanac

Astronomy

Aug. 29, 2014 Rise Set
Actual Time 6:40 AM MDT 7:35 PM MDT
Civil Twilight 6:15 AM MDT 8:00 PM MDT
Nautical Twilight 5:45 AM MDT 8:29 PM MDT
Astronomical Twilight 5:14 AM MDT 9:00 PM MDT
Moon 10:16 AM MDT 9:51 PM MDT
Length of Visible Light 13h 44m
Length of Day
12h 54m
Tomorrow will be 1m 53s shorter.
Waxing Crescent, 17% of the Moon is Illuminated
Today
Waxing Crescent
Sep 2
First Quarter
Sep 8
Full
Sep 15
Last Quarter
Sep 24
New

Today's Extremes

State Highs State Lows

Community

WunderPhotos

Upload Photos

1,748,360 photos uploaded!

Nearby

Snow Depth

Station Depth Elevation
Sierra Blanca 0 in 10280 ft
Silver Creek Divide 20 in 9000 ft
Wesner Springs 1 in 11120 ft
Quemazon 0 in 9500 ft
Red River Pass #2 0 in 9850 ft

Earthquake Activity

City Distance Mag. Time & Date
No recent earthquake activity has been reported nearby.
Minimum magnitude displayed is 2.5.

Coastal Water Temperatures

Place Temperature
No Stations Reporting

Nearby Weather Stations